sensor_id;sensor_type;location;lat;lon;timestamp;temperature;humidity
9157;DHT22;4613;48.392;9.998;2023-03-03T00:01:36;2.50;99.90
9157;DHT22;4613;48.392;9.998;2023-03-03T00:04:25;2.60;99.90
9157;DHT22;4613;48.392;9.998;2023-03-03T00:07:14;2.60;99.90
9157;DHT22;4613;48.392;9.998;2023-03-03T00:10:10;2.60;99.90
9157;DHT22;4613;48.392;9.998;2023-03-03T00:12:59;2.40;99.90
9157;DHT22;4613;48.392;9.998;2023-03-03T00:15:49;2.40;99.90
9157;DHT22;4613;48.392;9.998;2023-03-03T00:18:42;2.70;99.90
9157;DHT22;4613;48.392;9.998;2023-03-03T00:21:40;2.60;99.90
9157;DHT22;4613;48.392;9.998;2023-03-03T00:24:36;2.70;99.90
9157;DHT22;4613;48.392;9.998;2023-03-03T00:27:32;2.40;99.90
9157;DHT22;4613;48.392;9.998;2023-03-03T00:30:23;2.50;99.90
9157;DHT22;4613;48.392;9.998;2023-03-03T00:33:24;2.70;99.90
9157;DHT22;4613;48.392;9.998;2023-03-03T00:36:28;2.60;99.90
9157;DHT22;4613;48.392;9.998;2023-03-03T00:39:28;2.60;99.90
9157;DHT22;4613;48.392;9.998;2023-03-03T00:42:18;2.40;99.90
9157;DHT22;4613;48.392;9.998;2023-03-03T00:54:11;2.60;99.90
9157;DHT22;4613;48.392;9.998;2023-03-03T00:57:00;2.70;99.90
9157;DHT22;4613;48.392;9.998;2023-03-03T00:59:50;2.70;99.90
9157;DHT22;4613;48.392;9.998;2023-03-03T01:02:40;2.50;99.90
9157;DHT22;4613;48.392;9.998;2023-03-03T01:05:29;2.80;99.90
9157;DHT22;4613;48.392;9.998;2023-03-03T01:08:19;2.70;99.90
9157;DHT22;4613;48.392;9.998;2023-03-03T01:11:21;2.70;99.90
9157;DHT22;4613;48.392;9.998;2023-03-03T01:14:11;2.70;99.90
9157;DHT22;4613;48.392;9.998;2023-03-03T01:17:04;2.50;99.90
9157;DHT22;4613;48.392;9.998;2023-03-03T01:19:54;2.60;99.90
9157;DHT22;4613;48.392;9.998;2023-03-03T01:22:43;2.60;99.90
9157;DHT22;4613;48.392;9.998;2023-03-03T01:25:33;2.70;99.90
9157;DHT22;4613;48.392;9.998;2023-03-03T01:28:22;2.70;99.90
9157;DHT22;4613;48.392;9.998;2023-03-03T01:31:12;2.70;99.90
9157;DHT22;4613;48.392;9.998;2023-03-03T01:34:01;2.70;99.90
9157;DHT22;4613;48.392;9.998;2023-03-03T01:36:51;2.70;99.90
9157;DHT22;4613;48.392;9.998;2023-03-03T01:39:40;2.70;99.90
9157;DHT22;4613;48.392;9.998;2023-03-03T01:42:30;2.80;99.90
9157;DHT22;4613;48.392;9.998;2023-03-03T01:45:23;2.90;99.90
9157;DHT22;4613;48.392;9.998;2023-03-03T01:48:19;2.90;99.90
9157;DHT22;4613;48.392;9.998;2023-03-03T01:51:19;2.80;99.90
9157;DHT22;4613;48.392;9.998;2023-03-03T01:54:22;2.70;99.90
9157;DHT22;4613;48.392;9.998;2023-03-03T01:57:18;2.80;99.90
9157;DHT22;4613;48.392;9.998;2023-03-03T02:00:10;2.80;99.90
9157;DHT22;4613;48.392;9.998;2023-03-03T02:03:03;3.00;99.90
9157;DHT22;4613;48.392;9.998;2023-03-03T02:05:55;2.90;99.90
9157;DHT22;4613;48.392;9.998;2023-03-03T02:09:01;3.10;99.90
9157;DHT22;4613;48.392;9.998;2023-03-03T02:11:55;3.00;99.90
9157;DHT22;4613;48.392;9.998;2023-03-03T02:14:48;3.00;99.90
9157;DHT22;4613;48.392;9.998;2023-03-03T02:17:37;2.90;99.90
9157;DHT22;4613;48.392;9.998;2023-03-03T02:26:31;2.90;99.90
9157;DHT22;4613;48.392;9.998;2023-03-03T02:29:25;2.90;99.90
9157;DHT22;4613;48.392;9.998;2023-03-03T02:32:15;2.90;99.90
9157;DHT22;4613;48.392;9.998;2023-03-03T02:35:28;2.80;99.90
9157;DHT22;4613;48.392;9.998;2023-03-03T02:38:26;2.80;99.90
9157;DHT22;4613;48.392;9.998;2023-03-03T02:44:27;2.80;99.90
9157;DHT22;4613;48.392;9.998;2023-03-03T02:47:17;2.90;99.90
9157;DHT22;4613;48.392;9.998;2023-03-03T02:50:08;2.80;99.90
9157;DHT22;4613;48.392;9.998;2023-03-03T02:52:58;3.00;99.90
9157;DHT22;4613;48.392;9.998;2023-03-03T02:55:48;3.10;99.90
9157;DHT22;4613;48.392;9.998;2023-03-03T02:58:39;2.80;99.90
9157;DHT22;4613;48.392;9.998;2023-03-03T03:01:29;2.70;99.90
9157;DHT22;4613;48.392;9.998;2023-03-03T03:04:22;2.50;99.90
9157;DHT22;4613;48.392;9.998;2023-03-03T03:07:13;2.60;99.90
9157;DHT22;4613;48.392;9.998;2023-03-03T03:10:03;2.60;99.90
9157;DHT22;4613;48.392;9.998;2023-03-03T03:12:55;2.50;99.90
9157;DHT22;4613;48.392;9.998;2023-03-03T03:15:45;2.60;99.90
9157;DHT22;4613;48.392;9.998;2023-03-03T03:18:35;2.40;99.90
9157;DHT22;4613;48.392;9.998;2023-03-03T03:21:24;2.50;99.90
9157;DHT22;4613;48.392;9.998;2023-03-03T03:24:14;2.50;99.90
9157;DHT22;4613;48.392;9.998;2023-03-03T03:27:08;2.50;99.90
9157;DHT22;4613;48.392;9.998;2023-03-03T03:29:57;2.50;99.90
9157;DHT22;4613;48.392;9.998;2023-03-03T03:32:47;2.40;99.90
9157;DHT22;4613;48.392;9.998;2023-03-03T03:35:37;2.40;99.90
9157;DHT22;4613;48.392;9.998;2023-03-03T03:38:29;2.60;99.90
9157;DHT22;4613;48.392;9.998;2023-03-03T03:41:20;2.40;99.90
9157;DHT22;4613;48.392;9.998;2023-03-03T03:44:10;2.60;99.90
9157;DHT22;4613;48.392;9.998;2023-03-03T03:47:05;2.70;99.90
9157;DHT22;4613;48.392;9.998;2023-03-03T03:49:56;2.60;99.90
9157;DHT22;4613;48.392;9.998;2023-03-03T03:52:46;2.70;99.90
9157;DHT22;4613;48.392;9.998;2023-03-03T03:55:35;2.70;99.90
9157;DHT22;4613;48.392;9.998;2023-03-03T03:58:25;2.80;99.90
9157;DHT22;4613;48.392;9.998;2023-03-03T04:01:20;2.40;99.90
9157;DHT22;4613;48.392;9.998;2023-03-03T04:04:11;2.60;99.90
9157;DHT22;4613;48.392;9.998;2023-03-03T04:07:02;2.80;99.90
9157;DHT22;4613;48.392;9.998;2023-03-03T04:09:52;2.90;99.90
9157;DHT22;4613;48.392;9.998;2023-03-03T04:12:41;2.90;99.90
9157;DHT22;4613;48.392;9.998;2023-03-03T04:15:34;2.70;99.90
9157;DHT22;4613;48.392;9.998;2023-03-03T04:18:24;2.90;99.90
9157;DHT22;4613;48.392;9.998;2023-03-03T04:21:14;3.00;99.90
9157;DHT22;4613;48.392;9.998;2023-03-03T04:24:04;3.10;99.90
9157;DHT22;4613;48.392;9.998;2023-03-03T04:26:53;2.70;99.90
9157;DHT22;4613;48.392;9.998;2023-03-03T04:29:44;2.70;99.90
9157;DHT22;4613;48.392;9.998;2023-03-03T04:32:33;2.90;99.90
9157;DHT22;4613;48.392;9.998;2023-03-03T04:35:24;2.90;99.90
9157;DHT22;4613;48.392;9.998;2023-03-03T04:38:14;2.80;99.90
9157;DHT22;4613;48.392;9.998;2023-03-03T04:41:05;2.90;99.90
9157;DHT22;4613;48.392;9.998;2023-03-03T04:43:59;3.00;99.90
9157;DHT22;4613;48.392;9.998;2023-03-03T04:46:49;2.80;99.90
9157;DHT22;4613;48.392;9.998;2023-03-03T04:49:39;2.90;99.90
9157;DHT22;4613;48.392;9.998;2023-03-03T04:52:29;3.00;99.90
9157;DHT22;4613;48.392;9.998;2023-03-03T04:55:18;2.90;99.90
9157;DHT22;4613;48.392;9.998;2023-03-03T04:58:09;3.10;99.90
9157;DHT22;4613;48.392;9.998;2023-03-03T05:00:59;2.90;99.90
9157;DHT22;4613;48.392;9.998;2023-03-03T05:03:51;2.80;99.90
9157;DHT22;4613;48.392;9.998;2023-03-03T05:06:41;2.80;99.90
9157;DHT22;4613;48.392;9.998;2023-03-03T05:09:30;2.80;99.90
9157;DHT22;4613;48.392;9.998;2023-03-03T05:12:19;3.00;99.90
9157;DHT22;4613;48.392;9.998;2023-03-03T05:15:09;3.00;99.90
9157;DHT22;4613;48.392;9.998;2023-03-03T05:17:59;2.80;99.90
9157;DHT22;4613;48.392;9.998;2023-03-03T05:20:49;2.70;99.90
9157;DHT22;4613;48.392;9.998;2023-03-03T05:23:39;2.80;99.90
9157;DHT22;4613;48.392;9.998;2023-03-03T05:26:28;2.70;99.90
9157;DHT22;4613;48.392;9.998;2023-03-03T05:29:18;2.60;99.90
9157;DHT22;4613;48.392;9.998;2023-03-03T05:32:08;2.70;99.90
9157;DHT22;4613;48.392;9.998;2023-03-03T05:34:57;2.70;99.90
9157;DHT22;4613;48.392;9.998;2023-03-03T05:37:46;2.60;99.90
9157;DHT22;4613;48.392;9.998;2023-03-03T05:40:39;2.50;99.90
9157;DHT22;4613;48.392;9.998;2023-03-03T05:43:32;2.60;99.90
9157;DHT22;4613;48.392;9.998;2023-03-03T05:46:21;2.70;99.90
9157;DHT22;4613;48.392;9.998;2023-03-03T05:49:10;2.70;99.90
9157;DHT22;4613;48.392;9.998;2023-03-03T05:52:00;2.80;99.90
9157;DHT22;4613;48.392;9.998;2023-03-03T05:54:49;2.70;99.90
9157;DHT22;4613;48.392;9.998;2023-03-03T05:57:38;2.80;99.90
9157;DHT22;4613;48.392;9.998;2023-03-03T06:00:27;2.70;99.90
9157;DHT22;4613;48.392;9.998;2023-03-03T06:03:16;2.60;99.90
9157;DHT22;4613;48.392;9.998;2023-03-03T06:06:06;2.70;99.90
9157;DHT22;4613;48.392;9.998;2023-03-03T06:08:57;2.60;99.90
9157;DHT22;4613;48.392;9.998;2023-03-03T06:11:46;2.90;99.90
9157;DHT22;4613;48.392;9.998;2023-03-03T06:14:36;3.10;99.90
9157;DHT22;4613;48.392;9.998;2023-03-03T06:17:25;2.70;99.90
9157;DHT22;4613;48.392;9.998;2023-03-03T06:20:14;2.60;99.90
9157;DHT22;4613;48.392;9.998;2023-03-03T06:23:06;2.50;99.90
9157;DHT22;4613;48.392;9.998;2023-03-03T06:25:56;2.50;99.90
9157;DHT22;4613;48.392;9.998;2023-03-03T06:28:45;2.70;99.90
9157;DHT22;4613;48.392;9.998;2023-03-03T06:31:35;2.80;99.90
9157;DHT22;4613;48.392;9.998;2023-03-03T06:34:24;2.70;99.90
9157;DHT22;4613;48.392;9.998;2023-03-03T06:37:14;2.60;99.90
9157;DHT22;4613;48.392;9.998;2023-03-03T06:40:05;3.00;99.90
9157;DHT22;4613;48.392;9.998;2023-03-03T06:42:54;3.10;99.90
9157;DHT22;4613;48.392;9.998;2023-03-03T06:45:44;2.90;99.90
9157;DHT22;4613;48.392;9.998;2023-03-03T06:48:33;2.70;99.90
9157;DHT22;4613;48.392;9.998;2023-03-03T06:51:30;2.80;99.90
9157;DHT22;4613;48.392;9.998;2023-03-03T06:54:26;2.70;99.90
9157;DHT22;4613;48.392;9.998;2023-03-03T06:57:20;2.50;99.90
9157;DHT22;4613;48.392;9.998;2023-03-03T07:00:21;2.60;99.90
9157;DHT22;4613;48.392;9.998;2023-03-03T07:03:17;2.50;99.90
9157;DHT22;4613;48.392;9.998;2023-03-03T07:06:24;2.40;99.90
9157;DHT22;4613;48.392;9.998;2023-03-03T07:09:20;2.50;99.90
9157;DHT22;4613;48.392;9.998;2023-03-03T07:12:15;2.50;99.90
9157;DHT22;4613;48.392;9.998;2023-03-03T07:15:14;2.40;99.90
9157;DHT22;4613;48.392;9.998;2023-03-03T07:18:10;2.60;99.90
9157;DHT22;4613;48.392;9.998;2023-03-03T07:24:25;2.40;99.90
9157;DHT22;4613;48.392;9.998;2023-03-03T07:27:25;2.50;99.90
9157;DHT22;4613;48.392;9.998;2023-03-03T07:30:26;2.70;99.90
9157;DHT22;4613;48.392;9.998;2023-03-03T07:33:26;2.60;99.90
9157;DHT22;4613;48.392;9.998;2023-03-03T07:36:35;2.60;99.90
9157;DHT22;4613;48.392;9.998;2023-03-03T07:39:41;2.80;99.90
9157;DHT22;4613;48.392;9.998;2023-03-03T07:42:41;2.90;99.90
9157;DHT22;4613;48.392;9.998;2023-03-03T07:45:52;3.00;99.90
9157;DHT22;4613;48.392;9.998;2023-03-03T07:48:42;2.90;99.90
9157;DHT22;4613;48.392;9.998;2023-03-03T07:51:38;2.90;99.90
9157;DHT22;4613;48.392;9.998;2023-03-03T07:54:38;3.00;99.90
9157;DHT22;4613;48.392;9.998;2023-03-03T07:57:35;3.20;99.90
9157;DHT22;4613;48.392;9.998;2023-03-03T08:03:18;3.10;99.90
9157;DHT22;4613;48.392;9.998;2023-03-03T08:09:37;3.00;99.90
9157;DHT22;4613;48.392;9.998;2023-03-03T08:12:37;3.30;99.90
9157;DHT22;4613;48.392;9.998;2023-03-03T08:15:30;3.50;99.90
9157;DHT22;4613;48.392;9.998;2023-03-03T08:18:28;3.40;99.90
9157;DHT22;4613;48.392;9.998;2023-03-03T08:21:20;3.40;99.90
9157;DHT22;4613;48.392;9.998;2023-03-03T08:24:09;3.30;99.90
9157;DHT22;4613;48.392;9.998;2023-03-03T08:26:59;3.40;99.90
9157;DHT22;4613;48.392;9.998;2023-03-03T08:29:47;3.20;99.90
9157;DHT22;4613;48.392;9.998;2023-03-03T08:32:37;3.00;99.90
9157;DHT22;4613;48.392;9.998;2023-03-03T08:35:27;3.00;99.90
9157;DHT22;4613;48.392;9.998;2023-03-03T08:38:18;3.00;99.90
9157;DHT22;4613;48.392;9.998;2023-03-03T08:41:08;3.00;99.90
9157;DHT22;4613;48.392;9.998;2023-03-03T08:43:58;3.00;99.90
9157;DHT22;4613;48.392;9.998;2023-03-03T08:46:47;3.20;99.90
9157;DHT22;4613;48.392;9.998;2023-03-03T08:49:36;3.30;99.90
9157;DHT22;4613;48.392;9.998;2023-03-03T08:52:25;3.10;99.90
9157;DHT22;4613;48.392;9.998;2023-03-03T08:55:15;3.40;99.90
9157;DHT22;4613;48.392;9.998;2023-03-03T08:58:04;3.20;99.90
9157;DHT22;4613;48.392;9.998;2023-03-03T09:00:54;3.30;99.90
9157;DHT22;4613;48.392;9.998;2023-03-03T09:03:44;3.20;99.90
9157;DHT22;4613;48.392;9.998;2023-03-03T09:06:33;3.40;99.90
9157;DHT22;4613;48.392;9.998;2023-03-03T09:09:23;3.50;99.90
9157;DHT22;4613;48.392;9.998;2023-03-03T09:12:16;3.60;99.90
9157;DHT22;4613;48.392;9.998;2023-03-03T09:15:18;3.50;99.90
9157;DHT22;4613;48.392;9.998;2023-03-03T09:18:17;3.60;99.90
9157;DHT22;4613;48.392;9.998;2023-03-03T09:24:22;4.00;99.90
9157;DHT22;4613;48.392;9.998;2023-03-03T09:27:30;3.90;99.90
9157;DHT22;4613;48.392;9.998;2023-03-03T09:36:37;4.40;99.90
9157;DHT22;4613;48.392;9.998;2023-03-03T09:39:29;4.40;99.90
9157;DHT22;4613;48.392;9.998;2023-03-03T09:43:08;4.70;99.90
9157;DHT22;4613;48.392;9.998;2023-03-03T09:49:10;4.70;99.90
9157;DHT22;4613;48.392;9.998;2023-03-03T09:58:40;4.80;99.90
9157;DHT22;4613;48.392;9.998;2023-03-03T10:23:55;5.10;99.90
9157;DHT22;4613;48.392;9.998;2023-03-03T10:27:04;5.20;99.90
9157;DHT22;4613;48.392;9.998;2023-03-03T10:30:40;5.50;99.90
9157;DHT22;4613;48.392;9.998;2023-03-03T10:46:20;5.80;99.90
9157;DHT22;4613;48.392;9.998;2023-03-03T10:52:31;5.70;99.90
9157;DHT22;4613;48.392;9.998;2023-03-03T10:55:56;5.80;99.90
9157;DHT22;4613;48.392;9.998;2023-03-03T11:05:39;6.20;99.90
9157;DHT22;4613;48.392;9.998;2023-03-03T11:08:47;5.90;99.90
9157;DHT22;4613;48.392;9.998;2023-03-03T11:11:58;5.90;99.90
9157;DHT22;4613;48.392;9.998;2023-03-03T11:18:32;5.90;99.90
9157;DHT22;4613;48.392;9.998;2023-03-03T11:37:08;6.90;99.90
9157;DHT22;4613;48.392;9.998;2023-03-03T11:40:26;7.20;99.90
9157;DHT22;4613;48.392;9.998;2023-03-03T11:43:28;7.40;99.90
9157;DHT22;4613;48.392;9.998;2023-03-03T11:46:25;7.60;99.90
9157;DHT22;4613;48.392;9.998;2023-03-03T11:49:27;7.60;99.90
9157;DHT22;4613;48.392;9.998;2023-03-03T11:55:32;7.60;99.90
9157;DHT22;4613;48.392;9.998;2023-03-03T11:58:30;7.30;99.90
9157;DHT22;4613;48.392;9.998;2023-03-03T12:01:31;7.30;99.90
9157;DHT22;4613;48.392;9.998;2023-03-03T12:04:33;7.30;99.90
9157;DHT22;4613;48.392;9.998;2023-03-03T12:07:27;7.30;99.90
9157;DHT22;4613;48.392;9.998;2023-03-03T12:14:06;7.20;99.90
9157;DHT22;4613;48.392;9.998;2023-03-03T12:21:04;7.30;99.90
9157;DHT22;4613;48.392;9.998;2023-03-03T12:24:18;7.10;99.90
9157;DHT22;4613;48.392;9.998;2023-03-03T12:33:57;7.30;99.90
9157;DHT22;4613;48.392;9.998;2023-03-03T12:36:58;7.60;99.90
9157;DHT22;4613;48.392;9.998;2023-03-03T12:40:06;8.10;99.90
9157;DHT22;4613;48.392;9.998;2023-03-03T12:46:35;7.90;99.90
9157;DHT22;4613;48.392;9.998;2023-03-03T12:49:41;8.50;99.90
9157;DHT22;4613;48.392;9.998;2023-03-03T12:56:06;8.80;99.90
9157;DHT22;4613;48.392;9.998;2023-03-03T12:59:17;9.40;99.90
9157;DHT22;4613;48.392;9.998;2023-03-03T13:05:55;9.00;99.90
9157;DHT22;4613;48.392;9.998;2023-03-03T13:08:48;8.10;99.90
9157;DHT22;4613;48.392;9.998;2023-03-03T13:11:49;8.20;99.90
9157;DHT22;4613;48.392;9.998;2023-03-03T13:21:24;8.90;99.90
9157;DHT22;4613;48.392;9.998;2023-03-03T13:27:26;9.00;99.90
9157;DHT22;4613;48.392;9.998;2023-03-03T13:30:46;8.90;99.90
9157;DHT22;4613;48.392;9.998;2023-03-03T13:33:36;9.10;99.90
9157;DHT22;4613;48.392;9.998;2023-03-03T13:36:34;8.90;99.90
9157;DHT22;4613;48.392;9.998;2023-03-03T13:39:29;8.90;99.90
9157;DHT22;4613;48.392;9.998;2023-03-03T13:51:38;8.70;99.90
9157;DHT22;4613;48.392;9.998;2023-03-03T13:55:02;8.50;99.90
9157;DHT22;4613;48.392;9.998;2023-03-03T14:03:52;8.40;99.90
9157;DHT22;4613;48.392;9.998;2023-03-03T14:06:52;8.60;99.90
9157;DHT22;4613;48.392;9.998;2023-03-03T14:13:01;8.70;99.90
9157;DHT22;4613;48.392;9.998;2023-03-03T14:19:11;8.60;99.90
9157;DHT22;4613;48.392;9.998;2023-03-03T14:25:12;8.20;99.90
9157;DHT22;4613;48.392;9.998;2023-03-03T14:28:10;8.30;99.90
9157;DHT22;4613;48.392;9.998;2023-03-03T14:31:24;8.40;99.90
9157;DHT22;4613;48.392;9.998;2023-03-03T14:37:20;8.60;99.90
9157;DHT22;4613;48.392;9.998;2023-03-03T14:40:30;8.30;99.90
9157;DHT22;4613;48.392;9.998;2023-03-03T14:43:22;8.40;99.90
9157;DHT22;4613;48.392;9.998;2023-03-03T14:46:34;8.40;99.90
9157;DHT22;4613;48.392;9.998;2023-03-03T14:49:30;8.50;99.90
9157;DHT22;4613;48.392;9.998;2023-03-03T14:52:24;8.30;99.90
9157;DHT22;4613;48.392;9.998;2023-03-03T14:55:32;8.50;99.90
9157;DHT22;4613;48.392;9.998;2023-03-03T14:58:36;8.60;99.90
9157;DHT22;4613;48.392;9.998;2023-03-03T15:01:33;8.60;99.90
9157;DHT22;4613;48.392;9.998;2023-03-03T15:04:25;8.60;99.90
9157;DHT22;4613;48.392;9.998;2023-03-03T15:07:32;8.70;99.90
9157;DHT22;4613;48.392;9.998;2023-03-03T15:10:38;8.70;99.90
9157;DHT22;4613;48.392;9.998;2023-03-03T15:13:33;8.70;99.90
9157;DHT22;4613;48.392;9.998;2023-03-03T15:16:24;8.70;99.90
9157;DHT22;4613;48.392;9.998;2023-03-03T15:22:50;8.60;99.90
9157;DHT22;4613;48.392;9.998;2023-03-03T15:29:07;8.50;99.90
9157;DHT22;4613;48.392;9.998;2023-03-03T15:32:18;8.30;99.90
9157;DHT22;4613;48.392;9.998;2023-03-03T15:41:53;8.60;99.90
9157;DHT22;4613;48.392;9.998;2023-03-03T15:44:55;8.60;99.90
9157;DHT22;4613;48.392;9.998;2023-03-03T15:54:35;8.40;99.90
9157;DHT22;4613;48.392;9.998;2023-03-03T15:57:47;8.40;99.90
9157;DHT22;4613;48.392;9.998;2023-03-03T16:01:10;8.40;99.90
9157;DHT22;4613;48.392;9.998;2023-03-03T16:04:12;8.20;99.90
9157;DHT22;4613;48.392;9.998;2023-03-03T16:07:30;8.10;99.90
9157;DHT22;4613;48.392;9.998;2023-03-03T16:10:37;8.00;99.90
9157;DHT22;4613;48.392;9.998;2023-03-03T16:13:50;7.80;99.90
9157;DHT22;4613;48.392;9.998;2023-03-03T16:16:56;7.80;99.90
9157;DHT22;4613;48.392;9.998;2023-03-03T16:20:01;7.80;99.90
9157;DHT22;4613;48.392;9.998;2023-03-03T16:26:45;7.70;99.90
9157;DHT22;4613;48.392;9.998;2023-03-03T16:33:02;7.70;99.90
9157;DHT22;4613;48.392;9.998;2023-03-03T16:39:16;7.60;99.90
9157;DHT22;4613;48.392;9.998;2023-03-03T16:42:30;7.50;99.90
9157;DHT22;4613;48.392;9.998;2023-03-03T16:45:21;7.50;99.90
9157;DHT22;4613;48.392;9.998;2023-03-03T16:48:53;7.50;99.90
9157;DHT22;4613;48.392;9.998;2023-03-03T16:51:48;7.40;99.90
9157;DHT22;4613;48.392;9.998;2023-03-03T16:55:24;7.50;99.90
9157;DHT22;4613;48.392;9.998;2023-03-03T16:58:20;7.40;99.90
9157;DHT22;4613;48.392;9.998;2023-03-03T17:01:23;7.50;99.90
9157;DHT22;4613;48.392;9.998;2023-03-03T17:17:03;7.30;99.90
9157;DHT22;4613;48.392;9.998;2023-03-03T17:32:45;7.10;99.90
9157;DHT22;4613;48.392;9.998;2023-03-03T17:41:46;7.00;99.90
9157;DHT22;4613;48.392;9.998;2023-03-03T17:48:18;6.90;99.90
9157;DHT22;4613;48.392;9.998;2023-03-03T17:58:02;6.70;99.90
9157;DHT22;4613;48.392;9.998;2023-03-03T18:01:05;6.70;99.90
9157;DHT22;4613;48.392;9.998;2023-03-03T18:10:36;6.40;99.90
9157;DHT22;4613;48.392;9.998;2023-03-03T18:16:55;6.40;99.90
9157;DHT22;4613;48.392;9.998;2023-03-03T18:23:24;6.30;99.90
9157;DHT22;4613;48.392;9.998;2023-03-03T18:26:36;6.90;99.90
9157;DHT22;4613;48.392;9.998;2023-03-03T18:29:26;7.00;99.90
9157;DHT22;4613;48.392;9.998;2023-03-03T18:32:19;6.60;99.90
9157;DHT22;4613;48.392;9.998;2023-03-03T18:35:32;6.30;99.90
9157;DHT22;4613;48.392;9.998;2023-03-03T18:38:26;6.10;99.90
9157;DHT22;4613;48.392;9.998;2023-03-03T18:41:24;6.20;99.90
9157;DHT22;4613;48.392;9.998;2023-03-03T18:44:27;6.10;99.90
9157;DHT22;4613;48.392;9.998;2023-03-03T18:47:18;6.10;99.90
9157;DHT22;4613;48.392;9.998;2023-03-03T18:50:29;6.00;99.90
9157;DHT22;4613;48.392;9.998;2023-03-03T18:53:28;6.00;99.90
9157;DHT22;4613;48.392;9.998;2023-03-03T19:00:14;5.90;99.90
9157;DHT22;4613;48.392;9.998;2023-03-03T19:06:29;5.80;99.90
9157;DHT22;4613;48.392;9.998;2023-03-03T19:12:57;5.70;99.90
9157;DHT22;4613;48.392;9.998;2023-03-03T19:15:51;5.60;99.90
9157;DHT22;4613;48.392;9.998;2023-03-03T19:21:39;5.60;99.90
9157;DHT22;4613;48.392;9.998;2023-03-03T19:24:32;5.70;99.90
9157;DHT22;4613;48.392;9.998;2023-03-03T19:34:02;5.60;99.90
9157;DHT22;4613;48.392;9.998;2023-03-03T19:36:56;5.50;99.90
9157;DHT22;4613;48.392;9.998;2023-03-03T19:40:00;5.50;99.90
9157;DHT22;4613;48.392;9.998;2023-03-03T19:45:49;5.60;99.90
9157;DHT22;4613;48.392;9.998;2023-03-03T19:48:56;5.50;99.90
9157;DHT22;4613;48.392;9.998;2023-03-03T19:51:56;5.50;99.90
9157;DHT22;4613;48.392;9.998;2023-03-03T19:54:56;5.50;99.90
9157;DHT22;4613;48.392;9.998;2023-03-03T20:04:38;5.40;99.90
9157;DHT22;4613;48.392;9.998;2023-03-03T20:08:07;5.30;99.90
9157;DHT22;4613;48.392;9.998;2023-03-03T20:11:09;5.10;99.90
9157;DHT22;4613;48.392;9.998;2023-03-03T20:23:42;5.20;99.90
9157;DHT22;4613;48.392;9.998;2023-03-03T20:37:12;5.00;99.90
9157;DHT22;4613;48.392;9.998;2023-03-03T20:43:53;5.00;99.90
9157;DHT22;4613;48.392;9.998;2023-03-03T20:46:52;5.00;99.90
9157;DHT22;4613;48.392;9.998;2023-03-03T20:50:09;4.80;99.90
9157;DHT22;4613;48.392;9.998;2023-03-03T20:53:24;4.90;99.90
9157;DHT22;4613;48.392;9.998;2023-03-03T20:56:19;5.00;99.90
9157;DHT22;4613;48.392;9.998;2023-03-03T21:05:19;4.70;99.90
9157;DHT22;4613;48.392;9.998;2023-03-03T21:08:10;4.70;99.90
9157;DHT22;4613;48.392;9.998;2023-03-03T21:11:06;4.60;99.90
9157;DHT22;4613;48.392;9.998;2023-03-03T21:13:59;4.60;99.90
9157;DHT22;4613;48.392;9.998;2023-03-03T21:17:22;4.40;99.90
9157;DHT22;4613;48.392;9.998;2023-03-03T21:23:13;4.10;99.90
9157;DHT22;4613;48.392;9.998;2023-03-03T21:26:02;4.40;99.90
9157;DHT22;4613;48.392;9.998;2023-03-03T21:28:59;4.40;99.90
9157;DHT22;4613;48.392;9.998;2023-03-03T21:32:06;4.30;99.90
9157;DHT22;4613;48.392;9.998;2023-03-03T21:35:09;4.30;99.90
9157;DHT22;4613;48.392;9.998;2023-03-03T21:37:58;4.40;99.90
9157;DHT22;4613;48.392;9.998;2023-03-03T21:40:59;4.50;99.90
9157;DHT22;4613;48.392;9.998;2023-03-03T21:43:52;4.60;99.90
9157;DHT22;4613;48.392;9.998;2023-03-03T21:46:42;4.60;99.90
9157;DHT22;4613;48.392;9.998;2023-03-03T21:49:31;4.60;99.90
9157;DHT22;4613;48.392;9.998;2023-03-03T21:52:21;4.40;99.90
9157;DHT22;4613;48.392;9.998;2023-03-03T21:55:10;4.30;99.90
9157;DHT22;4613;48.392;9.998;2023-03-03T21:57:59;4.30;99.90
9157;DHT22;4613;48.392;9.998;2023-03-03T22:00:48;4.10;99.90
9157;DHT22;4613;48.392;9.998;2023-03-03T22:03:38;4.20;99.90
9157;DHT22;4613;48.392;9.998;2023-03-03T22:06:27;4.10;99.90
9157;DHT22;4613;48.392;9.998;2023-03-03T22:09:17;3.90;99.90
9157;DHT22;4613;48.392;9.998;2023-03-03T22:12:06;4.10;99.90
9157;DHT22;4613;48.392;9.998;2023-03-03T22:14:55;4.20;99.90
9157;DHT22;4613;48.392;9.998;2023-03-03T22:17:44;4.10;99.90
9157;DHT22;4613;48.392;9.998;2023-03-03T22:20:33;3.90;99.90
9157;DHT22;4613;48.392;9.998;2023-03-03T22:23:23;3.70;99.90
9157;DHT22;4613;48.392;9.998;2023-03-03T22:26:13;3.60;99.90
9157;DHT22;4613;48.392;9.998;2023-03-03T22:29:04;3.50;99.90
9157;DHT22;4613;48.392;9.998;2023-03-03T22:31:53;3.50;99.90
9157;DHT22;4613;48.392;9.998;2023-03-03T22:34:42;3.20;99.90
9157;DHT22;4613;48.392;9.998;2023-03-03T22:37:31;3.30;99.90
9157;DHT22;4613;48.392;9.998;2023-03-03T22:40:21;3.40;99.90
9157;DHT22;4613;48.392;9.998;2023-03-03T22:43:10;3.20;99.90
9157;DHT22;4613;48.392;9.998;2023-03-03T22:46:02;3.10;99.90
9157;DHT22;4613;48.392;9.998;2023-03-03T22:48:51;3.00;99.90
9157;DHT22;4613;48.392;9.998;2023-03-03T22:51:40;3.10;99.90
9157;DHT22;4613;48.392;9.998;2023-03-03T22:54:29;3.20;99.90
9157;DHT22;4613;48.392;9.998;2023-03-03T22:57:18;3.40;99.90
9157;DHT22;4613;48.392;9.998;2023-03-03T23:00:09;3.10;99.90
9157;DHT22;4613;48.392;9.998;2023-03-03T23:03:00;3.10;99.90
9157;DHT22;4613;48.392;9.998;2023-03-03T23:05:49;3.20;99.90
9157;DHT22;4613;48.392;9.998;2023-03-03T23:08:39;3.20;99.90
9157;DHT22;4613;48.392;9.998;2023-03-03T23:11:28;3.10;99.90
9157;DHT22;4613;48.392;9.998;2023-03-03T23:14:17;3.10;99.90
9157;DHT22;4613;48.392;9.998;2023-03-03T23:17:06;2.90;99.90
9157;DHT22;4613;48.392;9.998;2023-03-03T23:19:55;2.80;99.90
9157;DHT22;4613;48.392;9.998;2023-03-03T23:22:44;2.80;99.90
9157;DHT22;4613;48.392;9.998;2023-03-03T23:25:33;2.80;99.90
9157;DHT22;4613;48.392;9.998;2023-03-03T23:28:23;2.70;99.90
9157;DHT22;4613;48.392;9.998;2023-03-03T23:31:12;2.70;99.90
9157;DHT22;4613;48.392;9.998;2023-03-03T23:34:01;2.70;99.90
9157;DHT22;4613;48.392;9.998;2023-03-03T23:36:50;2.50;99.90
9157;DHT22;4613;48.392;9.998;2023-03-03T23:39:40;2.60;99.90
9157;DHT22;4613;48.392;9.998;2023-03-03T23:42:29;2.50;99.90
9157;DHT22;4613;48.392;9.998;2023-03-03T23:45:19;2.40;99.90
9157;DHT22;4613;48.392;9.998;2023-03-03T23:48:08;2.40;99.90
9157;DHT22;4613;48.392;9.998;2023-03-03T23:50:57;2.20;99.90
9157;DHT22;4613;48.392;9.998;2023-03-03T23:53:47;2.20;99.90
9157;DHT22;4613;48.392;9.998;2023-03-03T23:56:36;2.70;99.90
9157;DHT22;4613;48.392;9.998;2023-03-03T23:59:25;2.60;99.90
